New Minden, Illinois
Current Conditions -  °F | °C
As of 3:35 AM on Thursday 23 Oct 2014 (Local Time) from KSAR Reporting Station
Moderate Fog Moderate Fog  
Wind Chill: 39°   Ceiling: 200
Heat Index: 39°   Visibility: 0.25mi
Dew Point: 38°   Wind: 0mph
Humidity: 95%   Direction: NA
Pressure: 30.23"   Gusts: NA
Location:  38.318°N, 89.3879°W
Report Text: KSAR 230835Z AUTO 00000KT 1/4SM FG VV002 04/03 A3023 RMK AO2 T00400033
Loading
Personal Weather Stations






























Interactive Weather Map
Tropical Storm Tracking
New forecast layout! Learn more

10-Day Weather Forecast

Advertisements
Track Severe Weather on mobile